Language: 


Des rapports , des résumés tant et plus, au choix de chacun....


Données statistiques de la station
Quotidien Rapport Janvier 10, 2017 Unités:  Métrique    Anglais   les deux
« Précédent Jour
Suivant Jour »
Quotidien Hebdomadaire Mensuel Annuel Actuel
  Haut: Bas: Moyen:
Température: 7.9 °C 1.9 °C 5.1 °C
Pt de rosée: 7.1 °C 1.6 °C 4.5 °C
Humidité: 98 % 93 % 96 %
Vitesse du vent: 15.8 km/h 0.0 km/h 4.5 km/h
Rafales: 19.5 km/h - -
Vent:- - West
Pression: 1013.1 hPa 1007.0 hPa -
Précipitation: 0.5 mm    
Historical Graphs
 
 
Données statistiques pour Janvier 10, 2017
Heure Température Point de rosée Pression Vent Vitesse du vent Refales Humidité Pluie (taux horaire)
00:02 6.8 °C 5.9 °C 1009.0 hPa NW 7.2 km/h 16.6 km/h 94 % 1.8 mm
00:07 6.8 °C 6.0 °C 1009.0 hPa NNW 11.6 km/h 15.1 km/h 95 % 1.8 mm
00:17 6.4 °C 5.6 °C 1009.0 hPa NNW 6.1 km/h 19.5 km/h 94 % 1.5 mm
00:22 6.4 °C 5.5 °C 1008.0 hPa Calm   19.5 km/h 94 % 1.5 mm
00:27 6.3 °C 5.4 °C 1008.0 hPa Calm   11.9 km/h 94 % 1.5 mm
00:32 6.1 °C 5.2 °C 1008.0 hPa WNW 4.0 km/h 9.3 km/h 94 % 1.5 mm
00:37 6.0 °C 5.1 °C 1008.0 hPa WNW 2.1 km/h 9.3 km/h 94 % 1.5 mm
00:42 5.9 °C 5.2 °C 1008.0 hPa NW 6.1 km/h 10.1 km/h 95 % 1.5 mm
00:47 5.9 °C 5.2 °C 1008.0 hPa NNW 6.1 km/h 12.2 km/h 95 % 1.5 mm
00:52 5.9 °C 5.2 °C 1009.0 hPa NNW 5.5 km/h 12.2 km/h 95 % 0.0 mm
00:57 5.9 °C 5.2 °C 1009.0 hPa WNW 6.4 km/h 12.2 km/h 95 % 0.0 mm
01:02 5.9 °C 5.2 °C 1009.0 hPa WSW 8.7 km/h 12.6 km/h 95 % 0.0 mm
01:07 5.9 °C 5.2 °C 1009.0 hPa WSW 6.4 km/h 12.6 km/h 95 % 0.0 mm
01:17 5.9 °C 5.2 °C 1009.0 hPa WNW 5.5 km/h 16.3 km/h 95 % 0.0 mm
01:22 5.8 °C 5.1 °C 1009.0 hPa WNW 5.5 km/h 12.2 km/h 95 % 0.0 mm
01:27 5.6 °C 4.8 °C 1009.0 hPa West 4.0 km/h 11.9 km/h 95 % 0.0 mm
01:32 5.6 °C 4.8 °C 1009.0 hPa West 4.3 km/h 11.9 km/h 95 % 0.0 mm
01:37 5.5 °C 4.8 °C 1009.0 hPa Calm   11.9 km/h 95 % 0.0 mm
01:42 5.3 °C 4.6 °C 1009.0 hPa West 5.5 km/h 9.3 km/h 95 % 0.0 mm
01:47 5.2 °C 4.4 °C 1009.0 hPa West 5.8 km/h 10.1 km/h 95 % 0.0 mm
01:52 5.1 °C 4.3 °C 1009.0 hPa SSW 4.7 km/h 10.1 km/h 95 % 0.0 mm
01:57 5.0 °C 4.3 °C 1009.0 hPa West 6.1 km/h 8.7 km/h 95 % 0.0 mm
02:07 4.7 °C 4.1 °C 1009.0 hPa West 9.7 km/h 10.5 km/h 96 % 0.0 mm
02:12 4.6 °C 4.0 °C 1009.0 hPa West 6.4 km/h 10.5 km/h 96 % 0.0 mm
02:17 4.4 °C 3.8 °C 1009.0 hPa West 7.9 km/h 9.7 km/h 96 % 0.0 mm
02:22 4.3 °C 3.7 °C 1009.0 hPa West 5.8 km/h 8.7 km/h 96 % 0.0 mm
02:27 4.1 °C 3.6 °C 1009.0 hPa WSW 6.4 km/h 8.7 km/h 96 % 0.0 mm
02:32 3.9 °C 3.3 °C 1009.0 hPa WSW 6.9 km/h 9.0 km/h 96 % 0.0 mm
02:37 3.8 °C 3.2 °C 1009.0 hPa WSW 7.9 km/h 10.1 km/h 96 % 0.0 mm
02:42 3.8 °C 3.2 °C 1009.0 hPa West 7.6 km/h 10.1 km/h 96 % 0.0 mm
02:48 3.7 °C 3.2 °C 1009.0 hPa WSW 7.9 km/h 9.0 km/h 96 % 0.0 mm
02:53 3.6 °C 2.9 °C 1009.0 hPa WSW 5.0 km/h 9.0 km/h 96 % 0.0 mm
02:58 3.3 °C 2.8 °C 1009.0 hPa WSW 5.8 km/h 6.4 km/h 96 % 0.0 mm
03:03 3.3 °C 2.8 °C 1009.0 hPa WSW 7.6 km/h 7.9 km/h 96 % 0.0 mm
03:08 3.3 °C 2.8 °C 1009.0 hPa West 7.6 km/h 7.9 km/h 96 % 0.0 mm
03:13 3.2 °C 2.8 °C 1009.0 hPa West 9.3 km/h 9.3 km/h 97 % 0.0 mm
03:18 3.2 °C 2.8 °C 1009.0 hPa West 6.1 km/h 9.3 km/h 97 % 0.0 mm
03:23 3.2 °C 2.8 °C 1009.0 hPa West 7.9 km/h 9.3 km/h 97 % 0.0 mm
03:28 3.1 °C 2.7 °C 1009.0 hPa WSW 6.9 km/h 8.7 km/h 97 % 0.0 mm
03:33 2.9 °C 2.4 °C 1009.0 hPa WSW 4.7 km/h 6.9 km/h 96 % 0.0 mm
03:43 2.6 °C 2.1 °C 1009.0 hPa WSW 6.1 km/h 6.4 km/h 97 % 0.0 mm
03:48 2.4 °C 2.0 °C 1009.0 hPa WSW 5.8 km/h 6.9 km/h 97 % 0.0 mm
03:53 2.6 °C 2.1 °C 1009.0 hPa WSW 6.4 km/h 6.9 km/h 97 % 0.0 mm
03:58 2.7 °C 2.2 °C 1009.0 hPa WSW 6.1 km/h 7.9 km/h 97 % 0.0 mm
04:03 2.7 °C 2.2 °C 1009.0 hPa WSW 6.1 km/h 7.9 km/h 97 % 0.0 mm
04:08 2.7 °C 2.3 °C 1009.0 hPa WSW 6.1 km/h 6.9 km/h 97 % 0.0 mm
04:13 2.7 °C 2.3 °C 1009.0 hPa WSW 4.3 km/h 6.9 km/h 97 % 0.0 mm
04:18 2.7 °C 2.2 °C 1009.0 hPa WSW 4.0 km/h 6.1 km/h 97 % 0.0 mm
04:23 2.7 °C 2.2 °C 1009.0 hPa Calm   5.8 km/h 97 % 0.0 mm
04:28 2.6 °C 2.1 °C 1009.0 hPa Calm   5.0 km/h 97 % 0.0 mm
04:33 2.6 °C 2.1 °C 1009.0 hPa Calm   1.8 km/h 97 % 0.0 mm
04:38 2.3 °C 1.9 °C 1009.0 hPa Calm     97 % 0.0 mm
04:43 2.3 °C 1.8 °C 1009.0 hPa Calm     97 % 0.0 mm
04:48 2.2 °C 1.7 °C 1009.0 hPa Calm     97 % 0.0 mm
04:58 1.9 °C 1.6 °C 1008.0 hPa SW 5.8 km/h 5.8 km/h 97 % 0.0 mm
05:03 2.1 °C 1.6 °C 1008.0 hPa Calm   6.1 km/h 97 % 0.0 mm
05:08 2.3 °C 1.8 °C 1008.0 hPa West 4.0 km/h 6.1 km/h 97 % 0.0 mm
05:13 2.3 °C 1.9 °C 1008.0 hPa Calm   5.5 km/h 97 % 0.0 mm
05:18 2.3 °C 1.9 °C 1008.0 hPa Calm   5.5 km/h 97 % 0.0 mm
05:23 2.4 °C 2.0 °C 1008.0 hPa Calm     97 % 0.0 mm
05:28 2.3 °C 1.9 °C 1008.0 hPa Calm     97 % 0.0 mm
05:38 2.4 °C 2.0 °C 1008.0 hPa West 4.3 km/h 6.1 km/h 97 % 0.0 mm
05:43 2.6 °C 2.1 °C 1008.0 hPa West 4.0 km/h 6.1 km/h 97 % 0.0 mm
05:48 2.7 °C 2.4 °C 1008.0 hPa West 6.1 km/h 7.6 km/h 98 % 0.0 mm
05:54 2.7 °C 2.4 °C 1008.0 hPa West 6.9 km/h 7.6 km/h 98 % 0.0 mm
06:04 2.4 °C 2.0 °C 1008.0 hPa West 5.5 km/h 6.9 km/h 97 % 0.0 mm
06:09 2.3 °C 1.9 °C 1008.0 hPa West 4.7 km/h 6.9 km/h 97 % 0.0 mm
06:14 2.3 °C 1.9 °C 1008.0 hPa West 4.7 km/h 6.1 km/h 97 % 0.0 mm
06:19 2.3 °C 1.9 °C 1008.0 hPa Calm   6.1 km/h 97 % 0.0 mm
06:24 2.3 °C 1.8 °C 1008.0 hPa Calm   5.0 km/h 97 % 0.0 mm
06:29 2.1 °C 1.6 °C 1008.0 hPa Calm   4.3 km/h 97 % 0.0 mm
06:34 1.9 °C 1.6 °C 1008.0 hPa Calm     97 % 0.0 mm
06:39 2.1 °C 1.6 °C 1008.0 hPa Calm     97 % 0.0 mm
06:44 2.2 °C 1.7 °C 1008.0 hPa Calm     97 % 0.0 mm
06:49 2.1 °C 1.6 °C 1008.0 hPa Calm     97 % 0.0 mm
06:54 2.1 °C 1.6 °C 1008.0 hPa Calm     97 % 0.0 mm
06:59 2.1 °C 1.6 °C 1008.0 hPa Calm     97 % 0.0 mm
07:04 1.9 °C 1.6 °C 1008.0 hPa WSW 5.0 km/h 6.1 km/h 97 % 0.0 mm
07:09 2.1 °C 1.6 °C 1008.0 hPa WSW 5.8 km/h 6.1 km/h 97 % 0.0 mm
07:14 2.1 °C 1.6 °C 1008.0 hPa West 6.1 km/h 6.9 km/h 97 % 0.0 mm
07:19 2.3 °C 2.1 °C 1008.0 hPa West 6.9 km/h 6.9 km/h 98 % 0.0 mm
07:21 2.3 °C 2.1 °C 1008.0 hPa West 5.0 km/h 6.9 km/h 98 % 0.0 mm
07:26 2.6 °C 2.3 °C 1007.0 hPa WSW 5.5 km/h 6.9 km/h 98 % 0.0 mm
07:31 2.7 °C 2.4 °C 1007.0 hPa WSW 6.4 km/h 6.4 km/h 98 % 0.0 mm
07:36 2.7 °C 2.4 °C 1007.0 hPa WSW 6.1 km/h 6.9 km/h 98 % 0.0 mm
07:41 2.7 °C 2.4 °C 1007.0 hPa West 6.9 km/h 7.9 km/h 98 % 0.0 mm
07:46 2.8 °C 2.6 °C 1007.0 hPa West 6.1 km/h 7.9 km/h 98 % 0.0 mm
07:51 2.9 °C 2.5 °C 1007.0 hPa WSW 6.9 km/h 7.9 km/h 97 % 0.0 mm
07:56 3.1 °C 2.6 °C 1008.0 hPa WSW 6.9 km/h 7.9 km/h 97 % 0.0 mm
08:01 3.1 °C 2.6 °C 1008.0 hPa West 6.4 km/h 8.7 km/h 97 % 0.0 mm
08:06 3.1 °C 2.7 °C 1008.0 hPa WSW 6.1 km/h 9.3 km/h 97 % 0.0 mm
08:11 3.1 °C 2.7 °C 1008.0 hPa West 6.4 km/h 9.3 km/h 97 % 0.0 mm
08:16 3.1 °C 2.7 °C 1008.0 hPa WSW 5.5 km/h 6.9 km/h 97 % 0.0 mm
08:21 3.1 °C 2.6 °C 1008.0 hPa WSW 5.5 km/h 6.4 km/h 97 % 0.0 mm
08:26 3.1 °C 2.6 °C 1008.0 hPa WSW 4.0 km/h 6.4 km/h 97 % 0.0 mm
08:36 2.8 °C 2.4 °C 1008.0 hPa WSW 4.0 km/h 6.1 km/h 97 % 0.0 mm
08:41 2.7 °C 2.3 °C 1009.0 hPa Calm   4.7 km/h 97 % 0.0 mm
08:46 2.7 °C 2.3 °C 1009.0 hPa Calm   3.5 km/h 97 % 0.0 mm
08:51 2.7 °C 2.3 °C 1009.0 hPa Calm   1.4 km/h 97 % 0.0 mm
08:56 2.9 °C 2.5 °C 1009.0 hPa Calm     97 % 0.0 mm
09:01 2.9 °C 2.5 °C 1009.0 hPa West 1.8 km/h 1.8 km/h 97 % 0.0 mm
09:06 3.1 °C 2.7 °C 1009.0 hPa West 5.8 km/h 6.9 km/h 97 % 0.0 mm
09:11 3.2 °C 2.8 °C 1008.0 hPa WSW 5.0 km/h 6.9 km/h 97 % 0.0 mm
09:16 3.2 °C 2.8 °C 1008.0 hPa West 6.1 km/h 6.9 km/h 97 % 0.0 mm
09:21 3.3 °C 2.9 °C 1008.0 hPa West 5.0 km/h 6.4 km/h 97 % 0.0 mm
09:26 3.6 °C 3.1 °C 1009.0 hPa West 5.5 km/h 6.1 km/h 97 % 0.0 mm
09:31 3.6 °C 3.1 °C 1009.0 hPa WSW 4.3 km/h 5.8 km/h 97 % 0.0 mm
09:36 3.6 °C 3.2 °C 1009.0 hPa WSW 5.8 km/h 6.9 km/h 97 % 0.3 mm
09:41 3.6 °C 3.2 °C 1010.0 hPa West 6.4 km/h 7.9 km/h 97 % 0.3 mm
09:46 3.7 °C 3.3 °C 1010.0 hPa WSW 5.8 km/h 7.9 km/h 97 % 0.3 mm
09:51 3.9 °C 3.5 °C 1010.0 hPa West 5.8 km/h 6.9 km/h 97 % 0.3 mm
09:56 3.9 °C 3.5 °C 1009.0 hPa West 4.3 km/h 6.4 km/h 97 % 0.3 mm
10:01 4.0 °C 3.6 °C 1009.0 hPa WSW 4.7 km/h 6.9 km/h 97 % 0.3 mm
10:06 4.1 °C 3.7 °C 1009.0 hPa WSW 4.3 km/h 6.9 km/h 97 % 0.3 mm
10:11 4.2 °C 3.8 °C 1009.0 hPa WSW 4.7 km/h 6.1 km/h 97 % 0.3 mm
10:16 4.3 °C 3.9 °C 1009.0 hPa WSW 5.0 km/h 6.1 km/h 97 % 0.3 mm
10:21 4.4 °C 4.0 °C 1009.0 hPa WSW 6.1 km/h 6.9 km/h 97 % 0.3 mm
10:26 4.5 °C 4.1 °C 1008.0 hPa WSW 6.4 km/h 7.9 km/h 97 % 0.3 mm
10:31 4.5 °C 4.1 °C 1008.0 hPa WSW 7.6 km/h 9.0 km/h 97 % 0.0 mm
10:36 4.6 °C 4.2 °C 1008.0 hPa WSW 7.6 km/h 9.0 km/h 97 % 0.0 mm
10:41 4.7 °C 4.3 °C 1009.0 hPa WSW 5.8 km/h 8.7 km/h 97 % 0.0 mm
10:46 4.9 °C 4.4 °C 1009.0 hPa WSW 8.7 km/h 9.0 km/h 97 % 0.0 mm
10:51 5.0 °C 4.6 °C 1009.0 hPa WSW 8.7 km/h 9.3 km/h 97 % 0.0 mm
10:56 5.0 °C 4.6 °C 1009.0 hPa WSW 7.9 km/h 9.7 km/h 97 % 0.0 mm
11:01 5.1 °C 4.7 °C 1009.0 hPa WSW 8.7 km/h 9.7 km/h 97 % 0.0 mm
11:06 5.2 °C 4.8 °C 1009.0 hPa WSW 7.6 km/h 8.7 km/h 97 % 0.0 mm
11:11 5.3 °C 4.8 °C 1009.0 hPa WSW 6.1 km/h 8.7 km/h 97 % 0.0 mm
11:16 5.5 °C 5.1 °C 1009.0 hPa WSW 5.8 km/h 8.7 km/h 97 % 0.0 mm
11:21 5.6 °C 5.2 °C 1009.0 hPa WSW 5.8 km/h 10.5 km/h 97 % 0.0 mm
11:26 5.7 °C 5.2 °C 1009.0 hPa WSW 7.9 km/h 10.5 km/h 97 % 0.0 mm
11:31 5.8 °C 5.3 °C 1009.0 hPa WSW 6.1 km/h 9.7 km/h 97 % 0.0 mm
11:36 6.0 °C 5.6 °C 1009.0 hPa WSW 7.9 km/h 9.7 km/h 97 % 0.0 mm
11:41 6.2 °C 5.7 °C 1009.0 hPa WSW 6.9 km/h 9.7 km/h 97 % 0.0 mm
11:46 6.2 °C 5.7 °C 1009.0 hPa WSW 9.7 km/h 10.5 km/h 97 % 0.0 mm
11:51 6.4 °C 5.9 °C 1009.0 hPa WSW 9.3 km/h 11.9 km/h 97 % 0.0 mm
11:56 6.4 °C 5.9 °C 1009.0 hPa WSW 7.9 km/h 14.0 km/h 97 % 0.0 mm
12:01 6.6 °C 6.1 °C 1009.0 hPa WSW 9.7 km/h 14.0 km/h 97 % 0.0 mm
12:06 6.7 °C 6.1 °C 1009.0 hPa West 9.3 km/h 13.7 km/h 96 % 0.0 mm
12:11 6.7 °C 6.1 °C 1009.0 hPa West 13.7 km/h 14.3 km/h 96 % 0.0 mm
12:16 6.8 °C 6.2 °C 1009.0 hPa West 10.1 km/h 14.3 km/h 96 % 0.0 mm
12:21 6.8 °C 6.2 °C 1009.0 hPa West 10.5 km/h 13.7 km/h 96 % 0.0 mm
12:26 6.7 °C 6.1 °C 1009.0 hPa West 12.2 km/h 16.6 km/h 96 % 0.0 mm
12:31 6.7 °C 6.1 °C 1009.0 hPa West 15.8 km/h 16.9 km/h 96 % 0.0 mm
12:36 6.7 °C 6.1 °C 1009.0 hPa WNW 5.8 km/h 17.2 km/h 96 % 0.0 mm
12:41 6.7 °C 6.1 °C 1009.0 hPa WSW 9.7 km/h 17.2 km/h 96 % 0.0 mm
12:46 6.7 °C 6.1 °C 1009.0 hPa WSW 9.3 km/h 14.3 km/h 96 % 0.0 mm
12:51 6.6 °C 6.0 °C 1009.0 hPa WSW 9.7 km/h 14.3 km/h 96 % 0.0 mm
12:56 6.6 °C 6.0 °C 1010.0 hPa West 8.7 km/h 13.7 km/h 96 % 0.0 mm
13:01 6.7 °C 6.1 °C 1010.0 hPa West 6.4 km/h 13.7 km/h 96 % 0.0 mm
13:06 6.7 °C 6.1 °C 1010.0 hPa West 7.9 km/h 13.7 km/h 96 % 0.0 mm
13:11 6.7 °C 6.1 °C 1009.0 hPa West 10.1 km/h 13.7 km/h 96 % 0.0 mm
13:16 6.7 °C 6.1 °C 1009.0 hPa West 9.0 km/h 13.7 km/h 96 % 0.0 mm
13:21 6.7 °C 6.1 °C 1009.0 hPa West 4.7 km/h 13.7 km/h 96 % 0.0 mm
13:26 6.8 °C 6.2 °C 1009.0 hPa West 11.9 km/h 13.0 km/h 96 % 0.0 mm
13:31 6.8 °C 6.1 °C 1009.0 hPa West 10.1 km/h 11.9 km/h 95 % 0.0 mm
13:36 6.8 °C 6.1 °C 1009.0 hPa WSW 10.1 km/h 12.2 km/h 95 % 0.0 mm
13:41 6.8 °C 6.1 °C 1008.0 hPa West 9.3 km/h 12.2 km/h 95 % 0.0 mm
13:46 6.9 °C 6.2 °C 1008.0 hPa West 9.7 km/h 10.5 km/h 95 % 0.0 mm
13:51 6.9 °C 6.2 °C 1008.0 hPa West 5.8 km/h 10.8 km/h 95 % 0.0 mm
13:56 6.9 °C 6.2 °C 1009.0 hPa West 6.4 km/h 10.8 km/h 95 % 0.0 mm
14:06 6.9 °C 6.2 °C 1009.0 hPa WNW 4.3 km/h 9.0 km/h 95 % 0.0 mm
14:11 7.2 °C 6.4 °C 1009.0 hPa Calm   6.9 km/h 95 % 0.0 mm
14:16 7.3 °C 6.5 °C 1009.0 hPa Calm   7.9 km/h 95 % 0.3 mm
14:21 7.3 °C 6.6 °C 1009.0 hPa WNW 1.4 km/h 7.9 km/h 95 % 0.3 mm
14:27 7.3 °C 6.6 °C 1009.0 hPa WNW 5.8 km/h 6.1 km/h 95 % 0.3 mm
14:32 7.3 °C 6.6 °C 1009.0 hPa West 4.0 km/h 6.9 km/h 95 % 0.3 mm
14:36 7.4 °C 6.7 °C 1009.0 hPa West 5.0 km/h 6.9 km/h 95 % 0.3 mm
14:42 7.6 °C 6.8 °C 1009.0 hPa NW 4.3 km/h 6.9 km/h 95 % 0.3 mm
14:47 7.6 °C 6.8 °C 1009.0 hPa West 5.5 km/h 7.9 km/h 95 % 0.3 mm
14:57 7.7 °C 6.9 °C 1009.0 hPa NNW 4.0 km/h 8.7 km/h 95 % 0.3 mm
15:02 7.7 °C 7.0 °C 1009.0 hPa East 5.0 km/h 7.9 km/h 95 % 0.3 mm
15:07 7.7 °C 7.0 °C 1010.0 hPa Calm   9.0 km/h 95 % 0.3 mm
15:12 7.8 °C 6.9 °C 1010.0 hPa WNW 4.7 km/h 9.0 km/h 94 % 0.3 mm
15:17 7.8 °C 6.9 °C 1010.0 hPa NNW 1.8 km/h 6.9 km/h 94 % 0.0 mm
15:22 7.8 °C 6.9 °C 1010.0 hPa Calm   6.9 km/h 94 % 0.0 mm
15:27 7.9 °C 7.1 °C 1010.0 hPa NW 3.5 km/h 10.1 km/h 94 % 0.0 mm
15:32 7.9 °C 7.1 °C 1010.0 hPa NNW 2.6 km/h 12.6 km/h 94 % 0.0 mm
15:37 7.8 °C 6.9 °C 1010.0 hPa NW 12.2 km/h 16.3 km/h 94 % 0.0 mm
15:42 7.8 °C 6.8 °C 1010.0 hPa WNW 4.3 km/h 16.3 km/h 93 % 0.0 mm
15:47 7.9 °C 6.9 °C 1010.0 hPa Calm   9.0 km/h 93 % 0.0 mm
15:52 7.8 °C 6.8 °C 1010.0 hPa Calm   9.0 km/h 93 % 0.0 mm
15:57 7.8 °C 6.8 °C 1010.0 hPa NNW 3.2 km/h 9.7 km/h 93 % 0.0 mm
16:02 7.7 °C 6.8 °C 1010.0 hPa WNW 4.7 km/h 11.6 km/h 94 % 0.0 mm
16:07 7.7 °C 6.8 °C 1010.0 hPa WNW 5.0 km/h 11.9 km/h 94 % 0.0 mm
16:12 7.7 °C 6.8 °C 1010.0 hPa West 4.3 km/h 11.9 km/h 94 % 0.0 mm
16:17 7.7 °C 6.8 °C 1010.0 hPa SSW 4.3 km/h 10.1 km/h 94 % 0.0 mm
16:22 7.7 °C 6.8 °C 1010.0 hPa NW 10.5 km/h 10.5 km/h 94 % 0.0 mm
16:27 7.7 °C 6.7 °C 1010.0 hPa West 6.1 km/h 10.5 km/h 94 % 0.0 mm
16:32 7.7 °C 6.7 °C 1010.0 hPa Calm   10.5 km/h 94 % 0.0 mm
16:37 7.7 °C 6.7 °C 1011.1 hPa Calm   7.9 km/h 94 % 0.0 mm
16:42 7.6 °C 6.7 °C 1011.1 hPa West 4.0 km/h 6.4 km/h 94 % 0.0 mm
16:47 7.6 °C 6.7 °C 1011.1 hPa Calm   6.4 km/h 94 % 0.0 mm
16:52 7.4 °C 6.6 °C 1011.1 hPa Calm   6.4 km/h 94 % 0.0 mm
16:57 7.4 °C 6.6 °C 1011.1 hPa West 4.0 km/h 6.4 km/h 94 % 0.0 mm
17:02 7.3 °C 6.4 °C 1011.1 hPa West 4.3 km/h 6.4 km/h 94 % 0.0 mm
17:07 7.3 °C 6.3 °C 1011.1 hPa WSW 5.8 km/h 6.9 km/h 94 % 0.0 mm
17:12 7.2 °C 6.4 °C 1011.1 hPa Calm   6.9 km/h 95 % 0.0 mm
17:17 7.2 °C 6.4 °C 1011.1 hPa Calm   6.1 km/h 95 % 0.0 mm
17:22 7.1 °C 6.3 °C 1011.1 hPa Calm     95 % 0.0 mm
17:27 6.9 °C 6.2 °C 1011.1 hPa Calm     95 % 0.0 mm
17:37 6.8 °C 6.0 °C 1011.1 hPa Calm   4.0 km/h 95 % 0.0 mm
17:42 6.7 °C 5.9 °C 1011.1 hPa WNW 4.0 km/h 4.3 km/h 95 % 0.0 mm
17:47 6.4 °C 5.6 °C 1011.1 hPa WNW 5.0 km/h 5.0 km/h 95 % 0.0 mm
17:52 6.2 °C 5.4 °C 1011.1 hPa Calm   5.0 km/h 95 % 0.0 mm
17:57 6.1 °C 5.3 °C 1011.1 hPa Calm   4.0 km/h 95 % 0.0 mm
18:02 6.1 °C 5.3 °C 1011.1 hPa Calm     95 % 0.0 mm
18:07 6.0 °C 5.2 °C 1011.1 hPa Calm     95 % 0.0 mm
18:12 6.0 °C 5.2 °C 1011.1 hPa Calm     95 % 0.0 mm
18:17 6.0 °C 5.2 °C 1011.1 hPa Calm     95 % 0.0 mm
18:22 5.9 °C 5.2 °C 1011.1 hPa Calm     95 % 0.0 mm
18:27 5.7 °C 5.1 °C 1011.1 hPa Calm     96 % 0.0 mm
18:32 5.6 °C 5.0 °C 1011.1 hPa Calm     96 % 0.0 mm
18:33 5.6 °C 5.0 °C 1011.1 hPa Calm     96 % 0.0 mm
18:38 5.6 °C 5.0 °C 1011.1 hPa West 5.5 km/h 5.5 km/h 96 % 0.0 mm
18:43 5.5 °C 4.9 °C 1011.1 hPa Calm   5.5 km/h 96 % 0.0 mm
18:48 5.3 °C 4.7 °C 1011.1 hPa Calm   5.5 km/h 96 % 0.0 mm
18:53 5.2 °C 4.6 °C 1011.1 hPa Calm     96 % 0.0 mm
18:58 5.0 °C 4.4 °C 1011.1 hPa Calm     96 % 0.0 mm
19:03 4.7 °C 4.1 °C 1011.1 hPa Calm     96 % 0.0 mm
19:08 4.6 °C 4.0 °C 1012.1 hPa Calm     96 % 0.0 mm
19:13 4.6 °C 4.0 °C 1012.1 hPa Calm     96 % 0.0 mm
19:18 4.7 °C 4.1 °C 1012.1 hPa Calm     96 % 0.0 mm
19:23 4.7 °C 4.1 °C 1012.1 hPa Calm     96 % 0.0 mm
19:28 4.6 °C 4.0 °C 1012.1 hPa Calm     96 % 0.0 mm
19:33 4.7 °C 4.1 °C 1012.1 hPa Calm     96 % 0.0 mm
19:38 4.8 °C 4.4 °C 1012.1 hPa Calm     97 % 0.0 mm
19:43 4.8 °C 4.4 °C 1012.1 hPa Calm     97 % 0.0 mm
19:48 4.9 °C 4.3 °C 1012.1 hPa Calm     96 % 0.0 mm
19:53 4.9 °C 4.3 °C 1012.1 hPa Calm     96 % 0.0 mm
19:58 4.8 °C 4.4 °C 1012.1 hPa Calm     97 % 0.0 mm
20:03 4.9 °C 4.3 °C 1012.1 hPa Calm     96 % 0.0 mm
20:08 4.9 °C 4.3 °C 1012.1 hPa Calm     96 % 0.0 mm
20:13 5.0 °C 4.4 °C 1012.1 hPa Calm     96 % 0.0 mm
20:18 5.1 °C 4.5 °C 1012.1 hPa Calm     96 % 0.0 mm
20:23 5.2 °C 4.6 °C 1011.1 hPa Calm     96 % 0.0 mm
20:28 5.2 °C 4.6 °C 1011.1 hPa Calm     96 % 0.0 mm
20:33 5.3 °C 4.7 °C 1011.1 hPa Calm     96 % 0.0 mm
20:38 5.5 °C 4.9 °C 1012.1 hPa West 5.5 km/h 6.4 km/h 96 % 0.0 mm
20:43 5.5 °C 4.9 °C 1012.1 hPa West 5.0 km/h 6.4 km/h 96 % 0.0 mm
20:48 5.5 °C 4.9 °C 1012.1 hPa WSW 4.3 km/h 6.4 km/h 96 % 0.0 mm
20:53 5.5 °C 4.9 °C 1012.1 hPa WSW 6.1 km/h 6.4 km/h 96 % 0.0 mm
20:58 5.6 °C 5.0 °C 1012.1 hPa WSW 6.1 km/h 6.1 km/h 96 % 0.0 mm
21:03 5.6 °C 5.0 °C 1012.1 hPa WSW 6.9 km/h 6.9 km/h 96 % 0.0 mm
21:08 5.7 °C 5.1 °C 1013.1 hPa West 5.5 km/h 6.9 km/h 96 % 0.0 mm
21:13 5.7 °C 5.1 °C 1013.1 hPa West 6.1 km/h 7.9 km/h 96 % 0.0 mm
21:18 5.8 °C 5.2 °C 1013.1 hPa West 7.9 km/h 8.7 km/h 96 % 0.0 mm
21:23 5.8 °C 5.2 °C 1013.1 hPa West 6.4 km/h 8.7 km/h 96 % 0.0 mm
21:28 5.8 °C 5.2 °C 1013.1 hPa WSW 4.0 km/h 7.9 km/h 96 % 0.0 mm
21:33 5.8 °C 5.2 °C 1013.1 hPa WSW 4.0 km/h 7.9 km/h 96 % 0.0 mm
21:38 5.8 °C 5.2 °C 1013.1 hPa WSW 5.8 km/h 6.9 km/h 96 % 0.0 mm
21:44 5.8 °C 5.2 °C 1013.1 hPa WSW 5.0 km/h 6.9 km/h 96 % 0.0 mm
21:48 5.8 °C 5.2 °C 1013.1 hPa WSW 5.8 km/h 6.4 km/h 96 % 0.0 mm
21:54 5.8 °C 5.2 °C 1013.1 hPa WSW 4.3 km/h 5.8 km/h 96 % 0.0 mm
21:59 5.8 °C 5.2 °C 1013.1 hPa WSW 3.5 km/h 5.8 km/h 96 % 0.0 mm
22:04 5.7 °C 5.1 °C 1013.1 hPa WSW 5.0 km/h 5.5 km/h 96 % 0.0 mm
22:09 5.7 °C 5.1 °C 1012.1 hPa WSW 5.5 km/h 6.4 km/h 96 % 0.0 mm
22:14 5.8 °C 5.2 °C 1012.1 hPa WSW 8.7 km/h 8.7 km/h 96 % 0.0 mm
22:19 5.8 °C 5.2 °C 1012.1 hPa WSW 5.5 km/h 8.7 km/h 96 % 0.0 mm
22:24 5.8 °C 5.2 °C 1013.1 hPa West 6.1 km/h 7.9 km/h 96 % 0.0 mm
22:29 5.9 °C 5.3 °C 1013.1 hPa West 4.3 km/h 6.9 km/h 96 % 0.0 mm
22:34 5.9 °C 5.3 °C 1013.1 hPa West 4.7 km/h 6.9 km/h 96 % 0.0 mm
22:39 6.0 °C 5.4 °C 1013.1 hPa Calm   6.1 km/h 96 % 0.0 mm
22:44 5.9 °C 5.2 °C 1013.1 hPa Calm   5.0 km/h 95 % 0.0 mm
22:49 5.8 °C 5.2 °C 1013.1 hPa Calm     96 % 0.0 mm
22:54 5.9 °C 5.2 °C 1013.1 hPa WSW 6.4 km/h 6.4 km/h 95 % 0.0 mm
22:59 5.9 °C 5.2 °C 1013.1 hPa West 5.8 km/h 6.4 km/h 95 % 0.0 mm
23:04 5.8 °C 5.2 °C 1013.1 hPa WSW 5.0 km/h 6.4 km/h 96 % 0.0 mm
23:09 5.7 °C 5.1 °C 1013.1 hPa West 4.3 km/h 6.1 km/h 96 % 0.0 mm
23:14 5.8 °C 5.2 °C 1013.1 hPa Calm   5.8 km/h 96 % 0.0 mm
23:19 5.9 °C 5.2 °C 1013.1 hPa West 6.1 km/h 6.9 km/h 95 % 0.0 mm
23:24 5.9 °C 5.2 °C 1012.1 hPa WSW 5.8 km/h 6.9 km/h 95 % 0.0 mm
23:29 5.8 °C 5.2 °C 1012.1 hPa WSW 5.0 km/h 6.9 km/h 96 % 0.0 mm
23:34 5.8 °C 5.2 °C 1012.1 hPa WSW 4.3 km/h 6.9 km/h 96 % 0.0 mm
23:39 5.8 °C 5.2 °C 1012.1 hPa WSW 9.0 km/h 10.5 km/h 96 % 0.0 mm
23:44 5.9 °C 5.2 °C 1012.1 hPa WSW 6.4 km/h 10.5 km/h 95 % 0.0 mm
23:49 5.9 °C 5.3 °C 1012.1 hPa WSW 6.9 km/h 10.1 km/h 96 % 0.0 mm
23:54 5.9 °C 5.2 °C 1012.1 hPa WSW 8.7 km/h 10.1 km/h 95 % 0.0 mm
23:59 5.9 °C 5.3 °C 1012.1 hPa WSW 5.8 km/h 9.3 km/h 96 % 0.0 mm
Le Gheer Warneton
Courtoisie de Weather Underground - 2.25 mb

Mise a jour : 17-12-17 03:24:12
Généré par Cumulus 1.9.4 (1099)